Alaska Titan — WDE4789 — position and weather

sailwx.info

Track history (hours):
 
Tides and Currents Weather Stations Pressure Air Temp Water Temp Dewpoint Dewpoint Depression Visibility Wind Speed Wind Dir Waves Ship Positions

Alaska Titan

Owner: WESTERN TOWBOAT CO, Seattle, WA. More information available from US FCC via Universal Licensing System and Coast Guard Vessel Documentation Center.

Last reported at 2017-Jan-16 21:24 UTC. Time now 2017-Jan-20 07:53 UTC.
Position N 47°39' W 122°22'.

Length 40 m; draft 6.5 m.

Type: Tow > 200 m length. MMSI: 367357890.

Date/timePositionNaut miles runAvg speedWind from/ knotsBaromVisibWave heightAir tempDewpointWater temp
2017-Jan-16 21:24N 47°39' W 122°22'0 0.0
2017-Jan-16 20:33N 47°39' W 122°22'0 0.0
2017-Jan-14 17:16N 47°39' W 122°22'1 2.0
2017-Jan-14 16:33N 47°40' W 122°24'4 3.8
2017-Jan-14 15:33N 47°36' W 122°22'2 1.7
2017-Jan-14 14:33N 47°37' W 122°24'4 4.4
2017-Jan-14 13:33N 47°40' W 122°29'6 5.5
2017-Jan-14 12:33N 47°46' W 122°27'5 4.9
2017-Jan-14 11:33N 47°51' W 122°28'5 4.7
2017-Jan-14 10:33N 47°55' W 122°30'5 4.6
2017-Jan-14 09:30N 47°58' W 122°36'14 2.8
2017-Jan-14 04:28N 48°11' W 122°47'20 4.2
2017-Jan-13 23:33N 48°31' W 122°45'4 4.3
2017-Jan-13 22:33N 48°35' W 122°46'4 4.5
2017-Jan-13 21:33N 48°39' W 122°44'6 5.6
2017-Jan-13 20:32N 48°45' W 122°47'6 5.7
2017-Jan-13 19:31N 48°48' W 122°55'7 7.0
2017-Jan-13 18:29N 48°52' W 123°04'8 7.9
2017-Jan-13 17:31N 48°57' W 123°13'8 7.9
2017-Jan-13 16:33N 49°02' W 123°21'55 6.8
2017-Jan-13 08:24N 49°36' W 124°28'7 7.4
2017-Jan-13 07:27N 49°41' W 124°37'7 7.4
2017-Jan-13 06:33N 49°44' W 124°45'7 7.3
2017-Jan-13 05:33N 49°49' W 124°54'7 7.3
2017-Jan-13 04:33N 49°54' W 125°02'7 6.6
2017-Jan-13 03:33N 49°58' W 125°10'4 3.7
2017-Jan-13 02:33N 50°01' W 125°13'3 3.4
2017-Jan-13 01:34N 50°04' W 125°15'6 6.1
2017-Jan-13 00:33N 50°09' W 125°22'7 7.2
2017-Jan-12 23:31N 50°16' W 125°24'74 6.2
2017-Jan-12 11:30N 50°47' W 127°10'6 6.6
2017-Jan-12 10:33N 50°51' W 127°18'7 6.6
2017-Jan-12 09:33N 50°55' W 127°25'7 7.2
2017-Jan-12 08:34N 50°59' W 127°35'7 7.0
2017-Jan-12 07:34N 51°04' W 127°42'8 7.0
2017-Jan-12 06:27N 51°10' W 127°51'10 5.0
2017-Jan-12 04:33N 51°19' W 127°56'9 7.3
2017-Jan-12 03:21N 51°26' W 128°05'7 8.9
2017-Jan-12 02:34N 51°31' W 128°12'9 8.9
2017-Jan-12 01:33N 51°38' W 128°20'9 9.5
2017-Jan-12 00:33N 51°46' W 128°28'320 9.0
2017-Jan-10 13:00N 55°48' W 134°24'201 8.0 080 / 201014.010.8 5.1
2017-Jan-09 12:00N 58°36' W 137°48'35 8.6 020 / 101012.010.8 5.7
2017-Jan-09 08:00N 59°00' W 138°36'2512.3 040 / 501011.010.8 4.4
2017-Jan-09 06:00N 59°12' W 139°18'38 9.5 040 / 401013.510.8 1.4
2017-Jan-09 02:00N 59°30' W 140°24'73 9.1 030 / 101015.810.8 5.2
2017-Jan-08 18:00N 59°30' W 142°48'52 8.7 290 / 71018.527.0 3.9
2017-Jan-08 12:00N 59°36' W 144°30'   300 / 151024.010.8 2.1
Track history (hours):
 
Tides and Currents Weather Stations Pressure Air Temp Water Temp Dewpoint Dewpoint Depression Visibility Wind Speed Wind Dir Waves Ship Positions

Alaska Titan

Owner: WESTERN TOWBOAT CO, Seattle, WA. More information available from US FCC via Universal Licensing System and Coast Guard Vessel Documentation Center.

Last reported at 2017-Jan-16 21:24 UTC. Time now 2017-Jan-20 07:53 UTC.
Position N 47°39' W 122°22'.

Length 40 m; draft 6.5 m.

Type: Tow > 200 m length. MMSI: 367357890.

Date/timePositionNaut miles runAvg speedWind from/ knotsBaromVisibWave heightAir tempDewpointWater temp
2017-Jan-16 21:24N 47°39' W 122°22'0 0.0
2017-Jan-16 20:33N 47°39' W 122°22'0 0.0
2017-Jan-14 17:16N 47°39' W 122°22'1 2.0
2017-Jan-14 16:33N 47°40' W 122°24'4 3.8
2017-Jan-14 15:33N 47°36' W 122°22'2 1.7
2017-Jan-14 14:33N 47°37' W 122°24'4 4.4
2017-Jan-14 13:33N 47°40' W 122°29'6 5.5
2017-Jan-14 12:33N 47°46' W 122°27'5 4.9
2017-Jan-14 11:33N 47°51' W 122°28'5 4.7
2017-Jan-14 10:33N 47°55' W 122°30'5 4.6
2017-Jan-14 09:30N 47°58' W 122°36'14 2.8
2017-Jan-14 04:28N 48°11' W 122°47'20 4.2
2017-Jan-13 23:33N 48°31' W 122°45'4 4.3
2017-Jan-13 22:33N 48°35' W 122°46'4 4.5
2017-Jan-13 21:33N 48°39' W 122°44'6 5.6
2017-Jan-13 20:32N 48°45' W 122°47'6 5.7
2017-Jan-13 19:31N 48°48' W 122°55'7 7.0
2017-Jan-13 18:29N 48°52' W 123°04'8 7.9
2017-Jan-13 17:31N 48°57' W 123°13'8 7.9
2017-Jan-13 16:33N 49°02' W 123°21'55 6.8
2017-Jan-13 08:24N 49°36' W 124°28'7 7.4
2017-Jan-13 07:27N 49°41' W 124°37'7 7.4
2017-Jan-13 06:33N 49°44' W 124°45'7 7.3
2017-Jan-13 05:33N 49°49' W 124°54'7 7.3
2017-Jan-13 04:33N 49°54' W 125°02'7 6.6
2017-Jan-13 03:33N 49°58' W 125°10'4 3.7
2017-Jan-13 02:33N 50°01' W 125°13'3 3.4
2017-Jan-13 01:34N 50°04' W 125°15'6 6.1
2017-Jan-13 00:33N 50°09' W 125°22'7 7.2
2017-Jan-12 23:31N 50°16' W 125°24'74 6.2
2017-Jan-12 11:30N 50°47' W 127°10'6 6.6
2017-Jan-12 10:33N 50°51' W 127°18'7 6.6
2017-Jan-12 09:33N 50°55' W 127°25'7 7.2
2017-Jan-12 08:34N 50°59' W 127°35'7 7.0
2017-Jan-12 07:34N 51°04' W 127°42'8 7.0
2017-Jan-12 06:27N 51°10' W 127°51'10 5.0
2017-Jan-12 04:33N 51°19' W 127°56'9 7.3
2017-Jan-12 03:21N 51°26' W 128°05'7 8.9
2017-Jan-12 02:34N 51°31' W 128°12'9 8.9
2017-Jan-12 01:33N 51°38' W 128°20'9 9.5
2017-Jan-12 00:33N 51°46' W 128°28'320 9.0
2017-Jan-10 13:00N 55°48' W 134°24'201 8.0 080 / 201014.010.8 5.1
2017-Jan-09 12:00N 58°36' W 137°48'35 8.6 020 / 101012.010.8 5.7
2017-Jan-09 08:00N 59°00' W 138°36'2512.3 040 / 501011.010.8 4.4
2017-Jan-09 06:00N 59°12' W 139°18'38 9.5 040 / 401013.510.8 1.4
2017-Jan-09 02:00N 59°30' W 140°24'73 9.1 030 / 101015.810.8 5.2
2017-Jan-08 18:00N 59°30' W 142°48'52 8.7 290 / 71018.527.0 3.9
2017-Jan-08 12:00N 59°36' W 144°30'   300 / 151024.010.8 2.1

Dump ship's entire track history